Time;durP1;ratioP1;P1;durP2;ratioP2;P2;SDS_P1;SDS_P2;PMS_P1;PMS_P2;Temp;Humidity;BMP_temperature;BMP_pressure;BME280_temperature;BME280_humidity;BME280_pressure;Samples;Min_cycle;Max_cycle;Signal;HPM_P1;HPM_P2
2020/12/23 00:01:00;;;;;;;9.80;6.93;;;;;;;;;;4406757;32;20153;-76
2020/12/23 00:03:26;;;;;;;10.13;7.57;;;;;;;;;;4408184;32;20103;-77
2020/12/23 00:05:52;;;;;;;;;;;;;;;;;;4407631;32;20521;-77
2020/12/23 00:08:17;;;;;;;10.90;7.70;;;;;;;;;;4408350;32;19980;-78
2020/12/23 00:10:43;;;;;;;10.38;7.20;;;;;;;;;;4411312;32;20070;-77
2020/12/23 00:13:09;;;;;;;11.07;7.72;;;;;;;;;;4394595;32;20082;-78
2020/12/23 00:15:34;;;;;;;10.40;7.15;;;;;;;;;;4394927;32;20169;-77
2020/12/23 00:18:00;;;;;;;;;;;;;;;;;;4395424;32;20528;-77
2020/12/23 00:20:26;;;;;;;11.10;7.45;;;;;;;;;;4394935;32;19966;-77
2020/12/23 00:22:51;;;;;;;9.98;7.20;;;;;;;;;;4394721;32;20084;-75
2020/12/23 00:25:17;;;;;;;;;;;;;;;;;;4408000;32;20091;-77
2020/12/23 00:27:43;;;;;;;11.75;7.45;;;;;;;;;;4407379;32;20048;-77
2020/12/23 00:30:08;;;;;;;11.43;7.45;;;;;;;;;;4394346;32;20518;-77
2020/12/23 00:32:34;;;;;;;10.93;7.50;;;;;;;;;;4388471;32;20162;-76
2020/12/23 00:35:00;;;;;;;10.32;7.18;;;;;;;;;;4393854;32;20084;-76
2020/12/23 00:37:26;;;;;;;12.40;7.68;;;;;;;;;;4391272;32;20612;-77
2020/12/23 00:39:51;;;;;;;10.73;7.47;;;;;;;;;;4379460;32;20488;-77
2020/12/23 00:42:23;;;;;;;;;;;;;;;;;;4367476;32;20154;-77
2020/12/23 00:44:49;;;;;;;11.75;7.37;;;;;;;;;;4391234;32;20044;-77
2020/12/23 00:47:15;;;;;;;12.30;7.80;;;;;;;;;;4378902;32;20093;-77
2020/12/23 00:49:40;;;;;;;9.93;7.28;;;;;;;;;;4366819;32;20096;-76
2020/12/23 00:52:06;;;;;;;10.95;7.50;;;;;;;;;;4391896;32;20093;-76
2020/12/23 00:54:32;;;;;;;11.73;7.40;;;;;;;;;;4391073;32;20525;-78
2020/12/23 00:56:57;;;;;;;;;;;;;;;;;;4391485;32;20165;-76
2020/12/23 00:59:23;;;;;;;10.45;7.75;;;;;;;;;;4394966;32;19965;-76
2020/12/23 01:01:49;;;;;;;9.60;7.20;;;;;;;;;;4406191;32;20089;-76
2020/12/23 01:04:14;;;;;;;;;;;;;;;;;;4393993;32;20604;-76
2020/12/23 01:06:40;;;;;;;8.35;6.10;;;;;;;;;;4407540;32;19987;-75
2020/12/23 01:09:06;;;;;;;;;;;;;;;;;;4406757;32;20081;-75
2020/12/23 01:11:31;;;;;;;8.57;6.75;;;;;;;;;;4406350;32;20425;-77
2020/12/23 01:13:57;;;;;;;9.77;6.40;;;;;;;;;;4381231;32;20100;-77
2020/12/23 01:16:23;;;;;;;;;;;;;;;;;;4406396;32;20088;-76
2020/12/23 01:18:49;;;;;;;8.77;6.62;;;;;;;;;;4407688;32;20497;-77
2020/12/23 01:21:14;;;;;;;8.68;6.03;;;;;;;;;;4393469;32;20109;-75
2020/12/23 01:23:43;;;;;;;10.32;6.55;;;;;;;;;;4406515;32;20073;-76
2020/12/23 01:26:09;;;;;;;9.07;6.45;;;;;;;;;;4380854;32;20528;-75
2020/12/23 01:28:35;;;;;;;9.48;6.60;;;;;;;;;;4393310;32;20089;-77
2020/12/23 01:31:00;;;;;;;;;;;;;;;;;;4407769;32;20211;-77
2020/12/23 01:33:26;;;;;;;9.30;6.65;;;;;;;;;;4381615;32;20045;-76
2020/12/23 01:35:52;;;;;;;10.23;6.62;;;;;;;;;;4390478;32;20563;-76
2020/12/23 01:38:17;;;;;;;9.25;6.78;;;;;;;;;;4390962;32;20150;-76
2020/12/23 01:40:43;;;;;;;10.23;7.10;;;;;;;;;;4378228;32;20099;-76
2020/12/23 01:43:09;;;;;;;;;;;;;;;;;;4390685;32;20562;-77
2020/12/23 01:45:35;;;;;;;9.75;6.75;;;;;;;;;;4390829;32;20395;-76
2020/12/23 01:48:01;;;;;;;10.40;7.18;;;;;;;;;;4390343;32;20073;-75
2020/12/23 01:50:27;;;;;;;7.43;5.40;;;;;;;;;;4390454;32;20094;-77
2020/12/23 01:52:53;;;;;;;9.20;6.43;;;;;;;;;;4390746;32;20607;-75
2020/12/23 01:55:18;;;;;;;8.48;6.57;;;;;;;;;;4390584;32;20576;-75
2020/12/23 01:57:44;;;;;;;8.68;6.28;;;;;;;;;;4377991;32;20062;-76
2020/12/23 02:00:10;;;;;;;7.70;5.80;;;;;;;;;;4399642;32;20164;-76
2020/12/23 02:02:36;;;;;;;8.05;5.47;;;;;;;;;;4405410;32;20078;-75
2020/12/23 02:05:07;;;;;;;8.43;5.75;;;;;;;;;;4393222;32;20157;-76
2020/12/23 02:07:33;;;;;;;7.95;5.65;;;;;;;;;;4380450;32;20074;-77
2020/12/23 02:10:00;;;;;;;7.75;5.28;;;;;;;;;;4392842;32;20151;-75
2020/12/23 02:12:26;;;;;;;6.93;5.28;;;;;;;;;;4379978;32;20058;-76
2020/12/23 02:14:54;;;;;;;8.55;5.90;;;;;;;;;;4380424;32;20081;-76
2020/12/23 02:17:20;;;;;;;7.00;5.57;;;;;;;;;;4393186;32;20198;-76
2020/12/23 02:19:52;;;;;;;7.62;5.50;;;;;;;;;;4392921;32;20092;-75
2020/12/23 02:22:30;;;;;;;7.78;6.00;;;;;;;;;;4380699;32;20447;-76
2020/12/23 02:24:56;;;;;;;7.53;5.37;;;;;;;;;;4392660;32;20085;-76
2020/12/23 02:27:22;;;;;;;7.40;5.75;;;;;;;;;;4392717;32;20471;-78
2020/12/23 02:29:49;;;;;;;7.78;5.45;;;;;;;;;;4379710;32;20070;-76
2020/12/23 02:32:16;;;;;;;7.35;5.35;;;;;;;;;;4388201;32;20146;-77
2020/12/23 02:34:42;;;;;;;7.20;5.78;;;;;;;;;;4377419;32;20160;-77
2020/12/23 02:37:08;;;;;;;6.68;4.95;;;;;;;;;;4364501;32;20082;-76
2020/12/23 02:39:35;;;;;;;7.55;5.30;;;;;;;;;;4365485;32;20089;-77
2020/12/23 02:42:01;;;;;;;7.62;5.68;;;;;;;;;;4365115;32;20158;-76
2020/12/23 02:44:28;;;;;;;7.85;5.87;;;;;;;;;;4352548;32;20090;-77
2020/12/23 02:47:04;;;;;;;8.23;5.40;;;;;;;;;;4390075;32;20085;-75
2020/12/23 02:49:30;;;;;;;7.53;5.90;;;;;;;;;;4352597;32;20703;-77
2020/12/23 02:51:56;;;;;;;7.60;6.05;;;;;;;;;;4377694;32;20115;-76
2020/12/23 02:54:22;;;;;;;7.82;5.82;;;;;;;;;;4389676;32;20085;-76
2020/12/23 02:56:48;;;;;;;7.75;5.78;;;;;;;;;;4389975;32;20071;-75
2020/12/23 02:59:14;;;;;;;7.85;5.60;;;;;;;;;;4393647;32;20105;-76
2020/12/23 03:01:40;;;;;;;7.65;5.50;;;;;;;;;;4405324;32;20066;-75
2020/12/23 03:04:05;;;;;;;8.32;6.20;;;;;;;;;;4392573;32;20505;-75
2020/12/23 03:06:32;;;;;;;7.37;5.82;;;;;;;;;;4404799;32;20074;-76
2020/12/23 03:08:58;;;;;;;8.30;6.20;;;;;;;;;;4392259;32;20074;-75
2020/12/23 03:11:37;;;;;;;8.17;6.40;;;;;;;;;;3857732;37;20484;-75
2020/12/23 03:14:05;;;;;;;9.30;6.65;;;;;;;;;;4368779;32;20598;-75
2020/12/23 03:16:31;;;;;;;9.57;6.53;;;;;;;;;;4380809;32;20061;-75
2020/12/23 03:18:57;;;;;;;9.00;6.35;;;;;;;;;;4405640;32;20164;-76
2020/12/23 03:21:22;;;;;;;8.48;5.65;;;;;;;;;;4405423;32;20480;-76
2020/12/23 03:23:48;;;;;;;8.25;6.15;;;;;;;;;;4392838;32;20081;-75
2020/12/23 03:26:14;;;;;;;6.70;5.28;;;;;;;;;;4380115;32;20084;-75
2020/12/23 03:28:40;;;;;;;8.18;6.15;;;;;;;;;;4405532;32;20100;-75
2020/12/23 03:31:05;;;;;;;;;;;;;;;;;;4380483;32;20168;-75
2020/12/23 03:33:31;;;;;;;7.87;5.60;;;;;;;;;;4405652;32;19973;-75
2020/12/23 03:35:57;;;;;;;;;;;;;;;;;;4405649;32;20074;-75
2020/12/23 03:38:23;;;;;;;7.65;5.70;;;;;;;;;;4405438;32;19973;-75
2020/12/23 03:40:48;;;;;;;8.57;6.50;;;;;;;;;;4405171;32;20078;-76
2020/12/23 03:43:14;;;;;;;;;;;;;;;;;;4392884;32;20076;-75
2020/12/23 03:45:41;;;;;;;8.73;6.12;;;;;;;;;;4392667;32;19970;-75
2020/12/23 03:48:07;;;;;;;7.87;5.97;;;;;;;;;;4392787;32;20211;-76
2020/12/23 03:50:32;;;;;;;8.95;6.62;;;;;;;;;;4419140;32;20092;-75
2020/12/23 03:52:58;;;;;;;8.35;6.37;;;;;;;;;;4405506;32;20085;-75
2020/12/23 03:55:24;;;;;;;9.05;6.18;;;;;;;;;;4392675;32;20069;-76
2020/12/23 03:57:50;;;;;;;8.48;6.40;;;;;;;;;;4419418;32;20197;-75
2020/12/23 04:00:15;;;;;;;9.00;6.35;;;;;;;;;;4382313;32;20100;-75
2020/12/23 04:02:41;;;;;;;;;;;;;;;;;;4378278;32;20467;-77
2020/12/23 04:05:07;;;;;;;7.37;5.18;;;;;;;;;;4390365;32;19965;-76
2020/12/23 04:07:33;;;;;;;7.57;5.50;;;;;;;;;;4377482;32;20082;-75
2020/12/23 04:09:58;;;;;;;9.05;5.25;;;;;;;;;;4364208;32;20085;-75
2020/12/23 04:12:24;;;;;;;8.15;5.62;;;;;;;;;;4390266;32;20077;-75
2020/12/23 04:14:50;;;;;;;8.57;5.72;;;;;;;;;;4378246;32;20432;-75
2020/12/23 04:17:16;;;;;;;8.88;6.37;;;;;;;;;;4390570;32;20504;-74
2020/12/23 04:19:41;;;;;;;7.12;4.90;;;;;;;;;;4353329;32;20427;-75
2020/12/23 04:22:08;;;;;;;7.35;4.97;;;;;;;;;;4384732;32;20066;-75
2020/12/23 04:24:33;;;;;;;6.55;4.70;;;;;;;;;;4367787;32;20094;-76
2020/12/23 04:26:59;;;;;;;7.70;6.40;;;;;;;;;;4367430;32;20082;-76
2020/12/23 04:29:25;;;;;;;7.80;5.40;;;;;;;;;;4354970;32;20092;-75
2020/12/23 04:31:50;;;;;;;8.15;5.50;;;;;;;;;;4368766;32;20105;-76
2020/12/23 04:34:16;;;;;;;;;;;;;;;;;;4382381;32;20447;-75
2020/12/23 04:36:42;;;;;;;8.05;4.72;;;;;;;;;;4394414;32;20359;-75
2020/12/23 04:39:07;;;;;;;;;;;;;;;;;;4369835;32;20158;-76
2020/12/23 04:41:36;;;;;;;6.15;4.32;;;;;;;;;;4394709;32;19977;-75
2020/12/23 04:44:03;;;;;;;7.35;4.70;;;;;;;;;;4357852;32;20076;-75
2020/12/23 04:46:32;;;;;;;6.45;4.32;;;;;;;;;;4369532;32;20069;-76
2020/12/23 04:48:59;;;;;;;7.10;4.97;;;;;;;;;;4357136;32;20093;-75
2020/12/23 04:51:29;;;;;;;5.85;4.18;;;;;;;;;;4381397;32;20073;-75
2020/12/23 04:53:56;;;;;;;7.82;4.72;;;;;;;;;;4357081;32;20091;-75
2020/12/23 04:56:25;;;;;;;6.93;4.20;;;;;;;;;;4369464;32;20157;-75
2020/12/23 04:58:52;;;;;;;8.02;4.60;;;;;;;;;;4367259;32;20093;-74
2020/12/23 05:01:18;;;;;;;7.50;4.55;;;;;;;;;;4354046;32;20061;-75
2020/12/23 05:03:44;;;;;;;7.30;4.65;;;;;;;;;;4378911;32;20475;-75
2020/12/23 05:06:11;;;;;;;8.68;5.30;;;;;;;;;;4366396;32;20105;-75
2020/12/23 05:08:37;;;;;;;8.07;5.03;;;;;;;;;;4366644;32;20065;-76
2020/12/23 05:11:09;;;;;;;8.25;5.22;;;;;;;;;;4353982;32;20631;-77
2020/12/23 05:13:38;;;;;;;6.95;4.15;;;;;;;;;;4354969;32;20452;-76
2020/12/23 05:16:05;;;;;;;6.90;5.05;;;;;;;;;;4342137;32;20092;-76
2020/12/23 05:18:34;;;;;;;7.70;4.90;;;;;;;;;;4370127;32;20479;-76
2020/12/23 05:21:00;;;;;;;7.65;4.82;;;;;;;;;;4370436;32;20080;-75
2020/12/23 05:23:30;;;;;;;8.30;5.18;;;;;;;;;;4354836;32;20483;-77
2020/12/23 05:26:05;;;;;;;7.87;4.93;;;;;;;;;;4354120;32;20099;-75
2020/12/23 05:28:31;;;;;;;7.22;5.20;;;;;;;;;;4353775;32;20514;-75
2020/12/23 05:30:57;;;;;;;7.65;5.12;;;;;;;;;;4366008;32;20074;-77
2020/12/23 05:33:23;;;;;;;8.18;5.57;;;;;;;;;;4376873;32;20511;-76
2020/12/23 05:35:48;;;;;;;8.55;5.35;;;;;;;;;;4381127;32;20181;-75
2020/12/23 05:38:20;;;;;;;7.30;4.62;;;;;;;;;;4393721;32;20092;-75
2020/12/23 05:40:46;;;;;;;8.13;5.10;;;;;;;;;;4393756;32;20073;-75
2020/12/23 05:43:14;;;;;;;7.30;4.72;;;;;;;;;;4381077;32;20081;-75
2020/12/23 05:45:43;;;;;;;7.68;4.87;;;;;;;;;;4391259;32;20072;-73
2020/12/23 05:48:15;;;;;;;7.72;4.90;;;;;;;;;;4345456;32;20500;-72
2020/12/23 05:50:40;;;;;;;10.93;4.70;;;;;;;;;;4361076;32;20070;-73
2020/12/23 05:53:13;;;;;;;6.93;4.82;;;;;;;;;;4365448;32;20066;-74
2020/12/23 05:55:57;;;;;;;6.65;4.87;;;;;;;;;;4361124;32;20185;-73
2020/12/23 05:58:23;;;;;;;7.62;5.20;;;;;;;;;;4363727;32;20089;-73
2020/12/23 06:00:57;;;;;;;8.32;4.75;;;;;;;;;;4347132;32;20085;-73
2020/12/23 06:03:41;;;;;;;7.57;4.85;;;;;;;;;;4351263;32;20550;-73
2020/12/23 06:06:08;;;;;;;7.05;4.55;;;;;;;;;;4354947;32;20149;-73
2020/12/23 06:08:35;;;;;;;7.47;5.25;;;;;;;;;;4362706;32;20492;-72
2020/12/23 06:11:29;;;;;;;6.10;4.53;;;;;;;;;;4350373;32;20089;-72
2020/12/23 06:14:04;;;;;;;7.43;4.93;;;;;;;;;;4360438;32;20105;-70
2020/12/23 06:16:31;;;;;;;6.70;4.32;;;;;;;;;;4368586;32;20081;-73
2020/12/23 06:19:02;;;;;;;7.07;5.30;;;;;;;;;;4347538;32;20452;-72
2020/12/23 06:21:28;;;;;;;7.32;4.65;;;;;;;;;;4354241;32;20092;-71
2020/12/23 06:24:06;;;;;;;6.85;4.80;;;;;;;;;;4384023;32;20062;-74
2020/12/23 06:26:34;;;;;;;7.03;4.30;;;;;;;;;;4349044;32;20077;-72
2020/12/23 06:29:01;;;;;;;6.70;4.55;;;;;;;;;;4336605;32;20066;-74
2020/12/23 06:31:32;;;;;;;6.53;4.50;;;;;;;;;;4340048;32;20103;-71
2020/12/23 06:33:58;;;;;;;7.12;4.80;;;;;;;;;;4350901;32;20090;-73
2020/12/23 06:36:33;;;;;;;7.35;5.28;;;;;;;;;;4369430;32;20149;-72
2020/12/23 06:39:18;;;;;;;7.57;5.65;;;;;;;;;;4352795;32;20065;-72
2020/12/23 06:41:44;;;;;;;7.07;5.45;;;;;;;;;;4385664;32;20079;-72
2020/12/23 06:44:11;;;;;;;8.00;5.45;;;;;;;;;;4361522;32;20085;-73
2020/12/23 06:46:59;;;;;;;6.72;4.78;;;;;;;;;;4358242;32;20073;-73
2020/12/23 06:49:49;;;;;;;7.85;5.00;;;;;;;;;;4369846;32;20078;-71
2020/12/23 06:54:57;;;;;;;6.45;4.68;;;;;;;;;;4376642;32;20113;-75
2020/12/23 06:57:38;;;;;;;9.57;4.68;;;;;;;;;;4326810;32;20484;-74
2020/12/23 07:00:07;;;;;;;6.53;4.50;;;;;;;;;;4356165;32;20080;-77
2020/12/23 07:02:52;;;;;;;8.15;6.00;;;;;;;;;;4363153;32;20082;-76
2020/12/23 07:05:20;;;;;;;7.62;5.25;;;;;;;;;;4350537;32;20094;-78
2020/12/23 07:07:46;;;;;;;6.53;4.20;;;;;;;;;;4352250;32;20077;-76
2020/12/23 07:10:13;;;;;;;8.20;5.43;;;;;;;;;;4377976;32;20084;-76
2020/12/23 07:12:53;;;;;;;7.28;4.70;;;;;;;;;;4355264;32;20137;-77
2020/12/23 07:15:20;;;;;;;7.97;4.75;;;;;;;;;;4354475;32;20078;-75
2020/12/23 07:17:46;;;;;;;6.93;4.90;;;;;;;;;;4379274;32;20096;-76
2020/12/23 07:20:12;;;;;;;6.57;4.37;;;;;;;;;;4352464;32;20481;-78
2020/12/23 07:22:51;;;;;;;7.62;5.07;;;;;;;;;;3839192;37;20437;-76
2020/12/23 07:25:24;;;;;;;6.82;4.78;;;;;;;;;;4384588;32;20085;-77
2020/12/23 07:27:57;;;;;;;7.57;4.57;;;;;;;;;;4376591;32;20513;-75
2020/12/23 07:30:23;;;;;;;7.50;4.82;;;;;;;;;;4386066;32;20058;-77
2020/12/23 07:32:59;;;;;;;7.57;5.28;;;;;;;;;;4381923;32;20070;-72
2020/12/23 07:35:26;;;;;;;7.57;4.65;;;;;;;;;;4379643;32;20136;-76
2020/12/23 07:37:58;;;;;;;7.57;4.90;;;;;;;;;;4362334;32;20106;-73
2020/12/23 07:40:25;;;;;;;6.22;4.25;;;;;;;;;;4402565;32;20141;-74
2020/12/23 07:42:51;;;;;;;6.28;3.83;;;;;;;;;;4366818;32;20165;-74
2020/12/23 07:45:17;;;;;;;7.03;4.55;;;;;;;;;;4375471;32;20078;-73
2020/12/23 07:47:54;;;;;;;6.43;4.55;;;;;;;;;;4360182;32;20101;-74
2020/12/23 07:50:20;;;;;;;6.97;4.50;;;;;;;;;;4372017;32;20062;-74
2020/12/23 07:52:45;;;;;;;6.20;4.45;;;;;;;;;;4385008;32;20150;-73
2020/12/23 07:55:15;;;;;;;7.28;5.00;;;;;;;;;;4356258;32;20621;-72
2020/12/23 07:57:41;;;;;;;7.47;4.60;;;;;;;;;;4365608;32;20070;-74
2020/12/23 08:00:08;;;;;;;7.50;5.03;;;;;;;;;;4368469;32;20162;-73
2020/12/23 08:02:34;;;;;;;8.40;5.72;;;;;;;;;;4374529;32;20153;-70
2020/12/23 08:05:00;;;;;;;7.90;5.03;;;;;;;;;;4364656;32;20070;-72
2020/12/23 08:07:26;;;;;;;9.20;5.22;;;;;;;;;;4373274;32;20102;-68
2020/12/23 08:09:52;;;;;;;8.10;4.95;;;;;;;;;;4363187;32;20073;-70
2020/12/23 08:12:21;;;;;;;8.77;4.60;;;;;;;;;;4372656;32;20589;-69
2020/12/23 08:14:47;;;;;;;7.65;4.43;;;;;;;;;;4364561;32;20113;-71
2020/12/23 08:17:22;;;;;;;7.97;5.00;;;;;;;;;;4354487;32;20094;-71
2020/12/23 08:20:07;;;;;;;8.38;5.25;;;;;;;;;;4361697;32;20097;-72
2020/12/23 08:22:34;;;;;;;6.53;4.12;;;;;;;;;;4356766;32;20079;-72
2020/12/23 08:25:11;;;;;;;7.43;4.75;;;;;;;;;;4330072;32;20074;-70
2020/12/23 08:27:37;;;;;;;6.90;4.85;;;;;;;;;;4357758;32;20072;-69
2020/12/23 08:30:05;;;;;;;8.60;5.93;;;;;;;;;;4357808;32;20096;-72
2020/12/23 08:32:34;;;;;;;7.97;5.50;;;;;;;;;;4369066;32;20195;-71
2020/12/23 08:35:01;;;;;;;8.43;5.45;;;;;;;;;;4342397;32;20109;-73
2020/12/23 08:37:27;;;;;;;7.43;5.15;;;;;;;;;;4342223;32;20074;-71
2020/12/23 08:39:57;;;;;;;7.22;5.10;;;;;;;;;;4349414;32;20082;-72
2020/12/23 08:42:23;;;;;;;8.05;5.57;;;;;;;;;;4350297;32;20074;-70
2020/12/23 08:44:50;;;;;;;8.43;5.00;;;;;;;;;;4367241;32;20081;-75
2020/12/23 08:47:21;;;;;;;6.97;4.50;;;;;;;;;;4348470;32;20549;-71
2020/12/23 08:49:47;;;;;;;7.82;4.72;;;;;;;;;;4345976;32;20138;-72
2020/12/23 09:03:35;;;;;;;8.75;5.32;;;;;;;;;;4379266;32;20092;-73
2020/12/23 09:06:00;;;;;;;7.87;5.25;;;;;;;;;;4337669;32;20082;-72
2020/12/23 09:08:29;;;;;;;6.82;4.97;;;;;;;;;;4337078;32;20090;-70
2020/12/23 09:10:56;;;;;;;7.37;4.68;;;;;;;;;;4337690;32;20070;-71
2020/12/23 09:13:29;;;;;;;6.62;4.50;;;;;;;;;;4352471;32;20512;-70
2020/12/23 09:15:55;;;;;;;6.00;3.87;;;;;;;;;;4340881;32;20074;-70
2020/12/23 09:18:22;;;;;;;7.70;5.25;;;;;;;;;;4341016;32;20112;-73
2020/12/23 09:20:56;;;;;;;7.45;5.22;;;;;;;;;;4337585;32;20078;-72
2020/12/23 09:23:25;;;;;;;7.78;4.72;;;;;;;;;;4353954;32;20247;-73
2020/12/23 09:25:51;;;;;;;8.30;5.35;;;;;;;;;;4341101;32;20081;-71
2020/12/23 09:28:16;;;;;;;7.75;4.97;;;;;;;;;;4364664;32;20130;-72
2020/12/23 09:30:49;;;;;;;7.55;5.28;;;;;;;;;;4351906;32;20223;-73
2020/12/23 09:33:19;;;;;;;9.95;6.65;;;;;;;;;;4353878;32;20074;-73
2020/12/23 09:35:47;;;;;;;11.48;7.22;;;;;;;;;;4349214;32;20061;-71
2020/12/23 09:38:23;;;;;;;7.30;4.90;;;;;;;;;;4361565;32;20085;-72
2020/12/23 09:40:55;;;;;;;7.80;4.62;;;;;;;;;;4336367;32;20449;-69
2020/12/23 09:43:22;;;;;;;7.70;5.00;;;;;;;;;;4336357;32;20142;-69
2020/12/23 09:45:49;;;;;;;7.95;5.40;;;;;;;;;;4356065;32;20070;-72
2020/12/23 09:48:16;;;;;;;9.23;6.15;;;;;;;;;;4329768;32;20055;-72
2020/12/23 09:50:42;;;;;;;6.50;4.25;;;;;;;;;;4360864;32;20066;-71
2020/12/23 09:53:11;;;;;;;7.30;5.20;;;;;;;;;;4350323;32;20441;-71
2020/12/23 09:55:43;;;;;;;8.57;5.50;;;;;;;;;;4339195;32;20118;-71
2020/12/23 09:58:09;;;;;;;9.02;5.28;;;;;;;;;;4350828;32;20068;-69
2020/12/23 10:00:35;;;;;;;7.22;4.75;;;;;;;;;;4349062;32;20118;-67
2020/12/23 10:03:01;;;;;;;8.57;5.43;;;;;;;;;;4335906;32;20083;-69
2020/12/23 10:05:27;;;;;;;7.85;5.07;;;;;;;;;;4360940;32;20089;-70
2020/12/23 10:07:53;;;;;;;8.13;5.15;;;;;;;;;;4326863;32;20838;-68
2020/12/23 10:10:19;;;;;;;8.40;5.55;;;;;;;;;;4318314;32;20082;-70
2020/12/23 10:12:45;;;;;;;7.32;4.43;;;;;;;;;;4341315;32;20516;-65
2020/12/23 10:15:11;;;;;;;7.65;4.90;;;;;;;;;;4330469;32;20101;-69
2020/12/23 10:17:36;;;;;;;8.25;5.22;;;;;;;;;;4357425;32;20199;-70
2020/12/23 10:20:04;;;;;;;6.18;4.80;;;;;;;;;;4353826;32;20059;-70
2020/12/23 10:22:33;;;;;;;7.87;4.80;;;;;;;;;;4340001;32;20078;-69
2020/12/23 10:24:59;;;;;;;6.80;4.80;;;;;;;;;;4347922;32;20138;-80
2020/12/23 10:27:26;;;;;;;7.30;4.82;;;;;;;;;;4348747;32;20145;-69
2020/12/23 10:29:52;;;;;;;6.20;4.80;;;;;;;;;;4358730;32;20067;-70
2020/12/23 10:32:19;;;;;;;5.90;3.92;;;;;;;;;;4336238;32;20104;-72
2020/12/23 10:34:46;;;;;;;6.37;4.57;;;;;;;;;;4314163;32;20063;-71
2020/12/23 10:37:12;;;;;;;7.32;5.12;;;;;;;;;;4348720;32;20099;-74
2020/12/23 10:39:38;;;;;;;5.47;3.87;;;;;;;;;;4357581;32;20463;-74
2020/12/23 10:42:04;;;;;;;6.87;4.68;;;;;;;;;;4352020;32;20081;-77
2020/12/23 10:44:29;;;;;;;6.85;4.80;;;;;;;;;;4364727;32;20077;-74
2020/12/23 10:46:56;;;;;;;8.23;5.22;;;;;;;;;;4360198;32;20074;-77
2020/12/23 10:49:23;;;;;;;7.30;4.95;;;;;;;;;;4335447;32;20153;-77
2020/12/23 10:51:50;;;;;;;6.40;4.97;;;;;;;;;;4337758;32;20141;-79
2020/12/23 10:54:15;;;;;;;7.97;5.60;;;;;;;;;;4338556;32;20067;-79
2020/12/23 10:56:41;;;;;;;8.68;5.05;;;;;;;;;;4340363;32;20070;-74
2020/12/23 10:59:07;;;;;;;9.00;5.25;;;;;;;;;;4369762;32;20086;-74
2020/12/23 11:01:33;;;;;;;8.10;4.60;;;;;;;;;;4335515;32;20172;-75
2020/12/23 11:03:58;;;;;;;6.70;5.18;;;;;;;;;;4348965;32;20081;-73
2020/12/23 11:06:24;;;;;;;8.32;5.32;;;;;;;;;;4344239;32;20093;-75
2020/12/23 11:08:50;;;;;;;6.43;4.30;;;;;;;;;;4336940;32;20139;-71
2020/12/23 11:11:16;;;;;;;6.40;4.55;;;;;;;;;;4335458;32;20306;-73
2020/12/23 11:13:42;;;;;;;6.45;4.85;;;;;;;;;;4361041;32;20061;-73
2020/12/23 11:16:18;;;;;;;6.70;4.70;;;;;;;;;;4342697;32;20140;-75
2020/12/23 11:18:48;;;;;;;6.70;4.57;;;;;;;;;;4342108;32;20084;-71
2020/12/23 11:21:17;;;;;;;6.20;4.85;;;;;;;;;;4338408;32;20097;-74
2020/12/23 11:23:47;;;;;;;8.85;5.35;;;;;;;;;;4328446;32;20521;-76
2020/12/23 11:26:22;;;;;;;7.70;5.15;;;;;;;;;;4337443;32;20097;-77
2020/12/23 11:28:48;;;;;;;6.60;4.43;;;;;;;;;;4354933;32;20063;-73
2020/12/23 11:31:14;;;;;;;6.55;4.80;;;;;;;;;;4342633;32;20073;-77
2020/12/23 11:33:41;;;;;;;8.38;5.95;;;;;;;;;;4334827;32;20155;-76
2020/12/23 11:36:07;;;;;;;7.03;5.07;;;;;;;;;;4349042;32;20148;-74
2020/12/23 11:38:33;;;;;;;6.95;4.95;;;;;;;;;;4365166;32;20142;-73
2020/12/23 11:41:02;;;;;;;8.15;5.30;;;;;;;;;;4354862;32;20099;-75
2020/12/23 11:43:28;;;;;;;6.85;4.75;;;;;;;;;;4345590;32;20071;-67
2020/12/23 11:45:53;;;;;;;6.10;4.55;;;;;;;;;;4364642;32;20068;-70
2020/12/23 11:48:19;;;;;;;7.37;5.20;;;;;;;;;;4363876;32;20109;-71
2020/12/23 11:50:45;;;;;;;7.78;4.82;;;;;;;;;;4345059;32;20089;-70
2020/12/23 11:53:11;;;;;;;7.28;4.87;;;;;;;;;;4359440;32;20146;-70
2020/12/23 11:55:37;;;;;;;6.62;4.95;;;;;;;;;;4347291;32;20503;-70
2020/12/23 11:58:03;;;;;;;8.23;5.40;;;;;;;;;;4350312;32;20074;-69
2020/12/23 12:00:29;;;;;;;7.65;5.57;;;;;;;;;;4334081;32;20077;-66
2020/12/23 12:02:55;;;;;;;8.50;5.82;;;;;;;;;;4347332;32;20180;-67
2020/12/23 12:05:21;;;;;;;8.27;5.53;;;;;;;;;;4340501;32;20168;-66
2020/12/23 12:07:46;;;;;;;8.30;5.93;;;;;;;;;;4362125;32;20078;-68
2020/12/23 12:10:12;;;;;;;9.30;6.30;;;;;;;;;;4358444;32;20452;-65
2020/12/23 12:12:38;;;;;;;7.30;5.25;;;;;;;;;;4359608;32;20532;-71
2020/12/23 12:15:04;;;;;;;9.00;5.70;;;;;;;;;;4355578;32;20146;-69
2020/12/23 12:17:30;;;;;;;9.27;6.00;;;;;;;;;;4335694;32;20182;-72
2020/12/23 12:19:56;;;;;;;8.00;5.80;;;;;;;;;;4353057;32;20448;-70
2020/12/23 12:22:22;;;;;;;7.65;5.65;;;;;;;;;;4347109;33;20464;-70
2020/12/23 12:24:47;;;;;;;8.88;5.75;;;;;;;;;;4342524;33;20099;-64
2020/12/23 12:27:13;;;;;;;8.25;5.68;;;;;;;;;;4347578;32;20063;-66
2020/12/23 12:29:39;;;;;;;9.23;6.50;;;;;;;;;;4344543;33;20083;-68
2020/12/23 12:32:05;;;;;;;9.38;5.65;;;;;;;;;;4346670;32;20083;-69
2020/12/23 12:34:32;;;;;;;7.72;5.30;;;;;;;;;;4332151;33;20544;-70
2020/12/23 12:36:58;;;;;;;6.70;3.75;;;;;;;;;;4312641;33;20093;-69
2020/12/23 12:39:23;;;;;;;6.75;4.07;;;;;;;;;;4340040;33;20543;-71
2020/12/23 12:41:49;;;;;;;8.07;5.57;;;;;;;;;;4342910;33;20166;-68
2020/12/23 12:44:15;;;;;;;9.65;5.93;;;;;;;;;;4334945;32;20473;-69
2020/12/23 12:46:40;;;;;;;9.35;5.97;;;;;;;;;;4305730;33;20504;-66
2020/12/23 12:49:06;;;;;;;9.25;6.65;;;;;;;;;;4332358;33;20106;-64
2020/12/23 12:51:32;;;;;;;8.43;6.18;;;;;;;;;;4347415;33;20071;-64
2020/12/23 12:53:58;;;;;;;9.10;6.22;;;;;;;;;;4344200;32;20170;-65
2020/12/23 12:56:25;;;;;;;8.82;5.53;;;;;;;;;;4347456;32;20513;-65
2020/12/23 12:58:51;;;;;;;8.88;6.12;;;;;;;;;;4320361;33;20071;-70
2020/12/23 13:01:17;;;;;;;7.82;5.37;;;;;;;;;;4315138;33;20201;-70
2020/12/23 13:03:43;;;;;;;9.20;5.93;;;;;;;;;;4347817;32;20475;-66
2020/12/23 13:06:08;;;;;;;8.02;5.45;;;;;;;;;;4333602;33;20075;-64
2020/12/23 13:08:34;;;;;;;8.68;5.65;;;;;;;;;;4333562;33;20074;-67
2020/12/23 13:11:00;;;;;;;8.18;5.53;;;;;;;;;;4347910;32;20159;-68
2020/12/23 13:13:26;;;;;;;8.18;5.90;;;;;;;;;;4320723;33;20582;-68
2020/12/23 13:15:51;;;;;;;9.02;5.78;;;;;;;;;;4348164;33;20074;-66
2020/12/23 13:18:17;;;;;;;9.35;6.20;;;;;;;;;;4345396;32;20174;-67
2020/12/23 13:20:43;;;;;;;8.70;5.80;;;;;;;;;;4345109;32;20162;-65
2020/12/23 13:23:09;;;;;;;7.97;5.60;;;;;;;;;;4337056;32;20456;-66
2020/12/23 13:25:34;;;;;;;9.65;5.65;;;;;;;;;;4361472;32;20098;-68
2020/12/23 13:28:00;;;;;;;9.32;5.65;;;;;;;;;;4363916;32;20074;-69
2020/12/23 13:30:26;;;;;;;7.40;4.97;;;;;;;;;;4359324;32;20506;-66
2020/12/23 13:32:51;;;;;;;8.75;6.05;;;;;;;;;;4346841;32;20093;-66
2020/12/23 13:35:17;;;;;;;9.68;6.53;;;;;;;;;;4344048;32;20167;-66
2020/12/23 13:37:44;;;;;;;9.15;6.00;;;;;;;;;;4374308;32;20151;-70
2020/12/23 13:40:10;;;;;;;8.02;5.57;;;;;;;;;;4351757;32;20098;-70
2020/12/23 13:42:36;;;;;;;9.48;5.72;;;;;;;;;;4358164;32;20070;-70
2020/12/23 13:45:03;;;;;;;9.10;5.90;;;;;;;;;;4371075;32;20073;-69
2020/12/23 13:47:29;;;;;;;9.50;6.37;;;;;;;;;;4361733;32;20062;-70
2020/12/23 13:49:54;;;;;;;10.02;6.62;;;;;;;;;;4350605;32;20058;-70
2020/12/23 13:52:23;;;;;;;9.00;5.75;;;;;;;;;;4363661;32;20066;-68
2020/12/23 13:54:50;;;;;;;9.65;5.70;;;;;;;;;;4359079;32;20098;-67
2020/12/23 13:57:16;;;;;;;7.37;4.95;;;;;;;;;;4362309;32;20074;-72
2020/12/23 13:59:42;;;;;;;8.30;5.57;;;;;;;;;;4363023;32;20141;-71
2020/12/23 14:02:11;;;;;;;13.02;6.32;;;;;;;;;;4358615;32;20105;-68
2020/12/23 14:04:37;;;;;;;8.55;5.57;;;;;;;;;;4336426;32;20106;-69
2020/12/23 14:07:03;;;;;;;8.88;6.40;;;;;;;;;;4335656;32;20130;-72
2020/12/23 14:09:29;;;;;;;10.77;6.57;;;;;;;;;;4335150;32;20109;-69
2020/12/23 14:11:55;;;;;;;9.85;6.07;;;;;;;;;;4345766;32;20498;-69
2020/12/23 14:14:20;;;;;;;10.20;6.87;;;;;;;;;;4343816;32;20516;-69
2020/12/23 14:16:46;;;;;;;8.60;6.03;;;;;;;;;;4355670;32;20515;-70
2020/12/23 14:19:12;;;;;;;9.02;6.28;;;;;;;;;;4373100;32;20496;-70
2020/12/23 14:21:37;;;;;;;8.65;5.82;;;;;;;;;;4361208;32;20106;-71
2020/12/23 14:24:03;;;;;;;8.60;6.32;;;;;;;;;;4359998;32;20577;-74
2020/12/23 14:26:29;;;;;;;9.27;6.22;;;;;;;;;;4355969;32;20109;-71
2020/12/23 14:28:55;;;;;;;10.50;7.43;;;;;;;;;;4348791;32;20117;-72
2020/12/23 14:31:21;;;;;;;11.43;7.30;;;;;;;;;;4346056;32;20147;-69
2020/12/23 14:33:47;;;;;;;12.52;7.45;;;;;;;;;;4358216;32;20077;-73
2020/12/23 14:36:19;;;;;;;8.77;6.35;;;;;;;;;;4331876;32;20121;-71
2020/12/23 14:38:45;;;;;;;9.85;7.03;;;;;;;;;;4359386;32;20079;-71
2020/12/23 14:41:11;;;;;;;11.15;6.53;;;;;;;;;;4336312;32;20173;-70
2020/12/23 14:43:37;;;;;;;10.93;7.20;;;;;;;;;;4360650;32;20058;-69
2020/12/23 14:46:03;;;;;;;11.65;7.57;;;;;;;;;;4366413;32;20077;-71
2020/12/23 14:48:29;;;;;;;11.20;7.85;;;;;;;;;;4355262;32;20070;-71
2020/12/23 14:50:54;;;;;;;12.68;8.85;;;;;;;;;;4342472;32;20074;-73
2020/12/23 14:53:20;;;;;;;12.32;8.25;;;;;;;;;;4340633;32;20437;-69
2020/12/23 14:55:46;;;;;;;13.02;8.00;;;;;;;;;;4357685;32;20200;-67
2020/12/23 14:58:13;;;;;;;11.90;8.48;;;;;;;;;;4342408;32;20063;-71
2020/12/23 15:00:39;;;;;;;12.25;8.45;;;;;;;;;;4344825;32;20136;-69